createdAt,value
2018-09-05T00:02:20.340Z,61.17
2018-09-05T00:04:48.556Z,67.87
2018-09-05T00:07:16.753Z,63.67
2018-09-05T00:09:44.947Z,72.03
2018-09-05T00:12:13.172Z,65.57
2018-09-05T00:14:41.356Z,61.80
2018-09-05T00:17:09.580Z,71.27
2018-09-05T00:19:37.821Z,61.90
2018-09-05T00:22:06.045Z,63.00
2018-09-05T00:24:34.269Z,60.87
2018-09-05T00:27:02.548Z,67.77
2018-09-05T00:29:30.749Z,63.53
2018-09-05T00:31:58.972Z,68.37
2018-09-05T00:34:27.153Z,57.83
2018-09-05T00:36:55.344Z,64.97
2018-09-05T00:39:23.607Z,69.93
2018-09-05T00:41:51.845Z,60.30
2018-09-05T00:44:20.043Z,63.70
2018-09-05T00:46:48.295Z,61.23
2018-09-05T00:49:16.549Z,62.17
2018-09-05T00:51:44.744Z,63.90
2018-09-05T00:54:12.964Z,65.07
2018-09-05T00:56:41.140Z,67.50
2018-09-05T00:59:09.361Z,65.43
2018-09-05T01:01:37.545Z,68.53
2018-09-05T01:04:05.777Z,64.20
2018-09-05T01:06:34.088Z,63.83
2018-09-05T01:09:02.293Z,61.57
2018-09-05T01:11:30.495Z,68.27
2018-09-05T01:13:58.686Z,71.37
2018-09-05T01:16:26.939Z,61.93
2018-09-05T01:18:55.116Z,67.87
2018-09-05T01:21:23.337Z,63.20
2018-09-05T01:23:51.584Z,66.70
2018-09-05T01:26:19.800Z,65.97
2018-09-05T01:28:48.019Z,70.33
2018-09-05T01:31:16.235Z,64.10
2018-09-05T01:33:44.427Z,69.00
2018-09-05T01:36:15.789Z,70.93
2018-09-05T01:38:44.350Z,68.13
2018-09-05T01:41:13.652Z,63.03
2018-09-05T01:43:42.338Z,70.00
2018-09-05T01:46:10.543Z,69.67
2018-09-05T01:48:39.307Z,66.80
2018-09-05T01:51:07.764Z,72.30
2018-09-05T01:53:36.082Z,65.57
2018-09-05T01:56:04.305Z,68.87
2018-09-05T01:58:32.543Z,67.33
2018-09-05T02:01:00.751Z,68.13
2018-09-05T02:03:28.938Z,70.07
2018-09-05T02:05:57.115Z,69.73
2018-09-05T02:08:25.334Z,73.53
2018-09-05T02:10:53.515Z,74.90
2018-09-05T02:13:21.770Z,74.50
2018-09-05T02:15:49.991Z,70.97
2018-09-05T02:18:18.200Z,72.10
2018-09-05T02:20:46.456Z,67.80
2018-09-05T02:23:14.654Z,79.40
2018-09-05T02:25:42.845Z,77.07
2018-09-05T02:28:11.027Z,74.10
2018-09-05T02:30:39.280Z,77.10
2018-09-05T02:33:07.458Z,76.50
2018-09-05T02:35:35.656Z,85.00
2018-09-05T02:38:03.880Z,87.50
2018-09-05T02:40:32.192Z,74.33
2018-09-05T02:43:00.307Z,83.20
2018-09-05T02:45:28.491Z,80.83
2018-09-05T02:47:56.747Z,82.63
2018-09-05T02:50:24.991Z,80.03
2018-09-05T02:52:53.219Z,78.90
2018-09-05T02:56:25.403Z,78.47
2018-09-05T02:58:53.607Z,85.40
2018-09-05T03:01:21.788Z,81.13
2018-09-05T03:03:50.032Z,88.20
2018-09-05T03:06:18.208Z,91.13
2018-09-05T03:08:46.410Z,90.10
2018-09-05T03:11:14.684Z,95.17
2018-09-05T03:13:42.938Z,91.87
2018-09-05T03:16:11.157Z,92.23
2018-09-05T03:18:39.454Z,92.83
2018-09-05T03:21:07.726Z,84.10
2018-09-05T03:23:36.058Z,99.03
2018-09-05T03:26:04.344Z,85.77
2018-09-05T03:28:32.611Z,97.00
2018-09-05T03:31:00.818Z,89.63
2018-09-05T03:33:29.069Z,92.37
2018-09-05T03:35:57.377Z,96.23
2018-09-05T03:38:25.908Z,113.60
2018-09-05T03:40:54.135Z,105.83
2018-09-05T03:43:22.466Z,107.67
2018-09-05T03:45:50.761Z,107.27
2018-09-05T03:48:19.046Z,118.43
2018-09-05T03:50:47.262Z,126.00
2018-09-05T03:53:15.787Z,126.07
2018-09-05T03:55:44.000Z,125.30
2018-09-05T03:58:12.426Z,115.70
2018-09-05T04:00:40.670Z,105.87
2018-09-05T04:03:08.933Z,115.73
2018-09-05T04:05:37.257Z,117.47
2018-09-05T04:08:05.557Z,100.47
2018-09-05T04:10:33.806Z,95.33
2018-09-05T04:13:02.061Z,84.60
2018-09-05T04:15:30.285Z,71.40
2018-09-05T04:17:58.487Z,59.47
2018-09-05T04:20:26.816Z,59.30
2018-09-05T04:22:55.061Z,56.93
2018-09-05T04:25:23.360Z,57.53
2018-09-05T04:27:58.349Z,59.17
2018-09-05T04:30:26.598Z,45.57
2018-09-05T04:32:54.825Z,35.40
2018-09-05T04:35:23.059Z,34.07
2018-09-05T04:37:51.375Z,29.27
2018-09-05T04:40:19.596Z,36.10
2018-09-05T04:42:47.865Z,41.00
2018-09-05T04:45:16.150Z,42.33
2018-09-05T04:47:44.319Z,40.93
2018-09-05T04:50:12.902Z,40.30
2018-09-05T04:52:41.227Z,42.90
2018-09-05T04:55:09.382Z,46.33
2018-09-05T04:57:37.609Z,36.50
2018-09-05T05:00:05.821Z,32.50
2018-09-05T05:02:34.052Z,27.47
2018-09-05T05:05:02.245Z,29.60
2018-09-05T05:07:30.522Z,25.57
2018-09-05T05:09:58.782Z,26.90
2018-09-05T05:12:27.178Z,28.43
2018-09-05T05:14:55.371Z,27.57
2018-09-05T05:17:23.713Z,29.17
2018-09-05T05:19:51.931Z,25.63
2018-09-05T05:22:20.160Z,27.43
2018-09-05T05:24:48.438Z,33.33
2018-09-05T05:27:16.674Z,43.40
2018-09-05T05:29:44.885Z,43.23
2018-09-05T05:32:13.101Z,44.37
2018-09-05T05:34:41.333Z,40.00
2018-09-05T05:37:09.615Z,40.67
2018-09-05T05:39:37.950Z,37.80
2018-09-05T05:42:06.214Z,29.30
2018-09-05T05:44:34.537Z,23.20
2018-09-05T05:47:02.789Z,24.37
2018-09-05T05:49:31.054Z,20.30
2018-09-05T05:51:59.337Z,15.63
2018-09-05T05:54:27.579Z,13.83
2018-09-05T05:56:55.841Z,16.97
2018-09-05T05:59:24.054Z,13.93
2018-09-05T06:01:52.479Z,14.43
2018-09-05T06:04:20.737Z,14.30
2018-09-05T06:06:48.937Z,13.47
2018-09-05T06:09:17.153Z,11.80
2018-09-05T06:11:45.461Z,14.43
2018-09-05T06:14:13.685Z,13.17
2018-09-05T06:16:41.882Z,10.60
2018-09-05T06:19:10.210Z,11.83
2018-09-05T06:21:38.445Z,12.30
2018-09-05T06:24:06.939Z,11.70
2018-09-05T06:26:35.096Z,12.20
2018-09-05T06:29:03.321Z,13.13
2018-09-05T06:31:31.641Z,12.17
2018-09-05T06:33:59.881Z,11.40
2018-09-05T06:36:28.106Z,11.90
2018-09-05T06:38:56.378Z,12.97
2018-09-05T06:41:25.606Z,12.93
2018-09-05T06:43:53.829Z,12.23
2018-09-05T06:46:22.099Z,10.80
2018-09-05T06:48:50.320Z,10.77
2018-09-05T06:51:18.542Z,11.87
2018-09-05T06:53:46.819Z,10.30
2018-09-05T06:56:15.022Z,8.80
2018-09-05T06:58:43.575Z,9.60
2018-09-05T07:01:11.804Z,8.63
2018-09-05T07:03:40.193Z,8.63
2018-09-05T07:06:08.306Z,8.60
2018-09-05T07:08:36.589Z,11.37
2018-09-05T07:11:04.865Z,13.70
2018-09-05T07:13:33.074Z,14.87
2018-09-05T07:16:01.330Z,9.40
2018-09-05T07:18:29.579Z,12.67
2018-09-05T07:21:05.680Z,11.23
2018-09-05T07:23:26.182Z,9.73
2018-09-05T07:25:54.466Z,10.10
2018-09-05T07:28:59.627Z,9.23
2018-09-05T07:31:27.830Z,9.13
2018-09-05T07:33:56.057Z,7.33
2018-09-05T07:36:24.256Z,9.07
2018-09-05T07:38:52.469Z,9.50
2018-09-05T07:41:20.729Z,11.80
2018-09-05T07:43:49.009Z,12.03
2018-09-05T07:46:17.210Z,10.70
2018-09-05T07:48:45.449Z,11.20
2018-09-05T07:51:13.823Z,9.70
2018-09-05T07:53:42.050Z,9.70
2018-09-05T07:56:10.322Z,15.60
2018-09-05T07:58:38.521Z,13.20
2018-09-05T08:01:06.826Z,12.13
2018-09-05T08:03:35.106Z,10.37
2018-09-05T08:06:03.356Z,15.10
2018-09-05T08:08:31.962Z,12.83
2018-09-05T08:11:00.174Z,15.40
2018-09-05T08:13:28.462Z,18.60
2018-09-05T08:15:56.765Z,13.43
2018-09-05T08:18:25.013Z,14.73
2018-09-05T08:20:53.249Z,15.03
2018-09-05T08:23:21.573Z,17.70
2018-09-05T08:25:49.875Z,20.60
2018-09-05T08:28:18.202Z,16.73
2018-09-05T08:30:46.461Z,18.00
2018-09-05T08:33:14.733Z,21.13
2018-09-05T08:35:43.279Z,20.97
2018-09-05T08:38:11.313Z,24.50
2018-09-05T08:40:39.587Z,24.83
2018-09-05T08:43:07.750Z,25.73
2018-09-05T08:45:36.129Z,23.63
2018-09-05T08:48:04.231Z,20.83
2018-09-05T08:50:32.473Z,23.33
2018-09-05T08:53:00.718Z,27.07
2018-09-05T08:55:29.154Z,36.80
2018-09-05T08:57:57.397Z,27.33
2018-09-05T09:00:25.717Z,24.13
2018-09-05T09:02:54.080Z,32.73
2018-09-05T09:05:22.258Z,26.73
2018-09-05T09:07:50.589Z,28.00
2018-09-05T09:10:18.876Z,28.97
2018-09-05T09:12:47.085Z,33.43
2018-09-05T09:15:15.391Z,28.20
2018-09-05T09:17:43.657Z,30.70
2018-09-05T09:20:11.889Z,32.07
2018-09-05T09:22:40.122Z,33.93
2018-09-05T09:25:08.442Z,34.60
2018-09-05T09:27:36.734Z,35.23
2018-09-05T09:30:04.928Z,36.93
2018-09-05T09:32:33.145Z,35.27
2018-09-05T09:35:01.385Z,36.67
2018-09-05T09:37:29.618Z,40.37
2018-09-05T09:39:58.165Z,40.67
2018-09-05T09:42:26.374Z,43.40
2018-09-05T09:44:54.570Z,44.20
2018-09-05T09:47:22.779Z,46.93
2018-09-05T09:49:50.994Z,46.80
2018-09-05T09:52:19.493Z,46.30
2018-09-05T09:54:48.470Z,47.80
2018-09-05T09:57:17.861Z,41.63
2018-09-05T09:59:46.155Z,38.17
2018-09-05T10:02:19.865Z,36.93
2018-09-05T10:04:53.683Z,31.70
2018-09-05T10:07:27.378Z,36.60
2018-09-05T10:09:59.943Z,34.27
2018-09-05T10:12:33.509Z,37.37
2018-09-05T10:15:02.822Z,39.07
2018-09-05T10:17:32.456Z,40.17
2018-09-05T10:20:01.385Z,41.10
2018-09-05T10:22:30.333Z,45.00
2018-09-05T10:24:58.530Z,44.97
2018-09-05T10:27:27.718Z,46.20
2018-09-05T10:29:56.452Z,47.07
2018-09-05T10:32:25.242Z,46.70
2018-09-05T10:34:54.159Z,41.27
2018-09-05T10:37:22.440Z,35.57
2018-09-05T10:39:50.877Z,36.77
2018-09-05T10:42:19.239Z,32.47
2018-09-05T10:44:47.493Z,32.53
2018-09-05T10:47:15.747Z,32.70
2018-09-05T10:49:43.994Z,34.50
2018-09-05T10:52:12.293Z,45.20
2018-09-05T10:54:40.557Z,40.10
2018-09-05T10:57:08.801Z,36.93
2018-09-05T10:59:37.021Z,38.47
2018-09-05T11:02:05.248Z,38.07
2018-09-05T11:04:33.506Z,38.47
2018-09-05T11:07:01.716Z,29.67
2018-09-05T11:09:29.946Z,31.03
2018-09-05T11:11:58.297Z,28.00
2018-09-05T11:14:26.557Z,31.17
2018-09-05T11:16:55.389Z,35.40
2018-09-05T11:19:23.630Z,34.07
2018-09-05T11:21:51.863Z,30.77
2018-09-05T11:24:20.065Z,26.90
2018-09-05T11:26:48.323Z,24.33
2018-09-05T11:29:16.573Z,25.70
2018-09-05T11:31:44.933Z,26.87
2018-09-05T11:34:13.169Z,22.53
2018-09-05T11:36:41.487Z,24.90
2018-09-05T11:39:11.646Z,23.40
2018-09-05T11:41:39.936Z,21.17
2018-09-05T11:44:08.191Z,20.60
2018-09-05T11:46:37.246Z,21.77
2018-09-05T11:49:05.554Z,19.97
2018-09-05T11:51:33.810Z,19.50
2018-09-05T11:54:02.066Z,21.70
2018-09-05T11:56:30.309Z,18.17
2018-09-05T11:58:58.541Z,16.60
2018-09-05T12:01:26.905Z,16.40
2018-09-05T12:03:55.129Z,14.80
2018-09-05T12:06:23.849Z,13.87
2018-09-05T12:08:52.126Z,13.47
2018-09-05T12:11:20.456Z,14.00
2018-09-05T12:13:48.666Z,16.47
2018-09-05T12:16:16.922Z,15.73
2018-09-05T12:18:45.254Z,13.90
2018-09-05T12:21:13.461Z,14.73
2018-09-05T12:23:41.730Z,13.40
2018-09-05T12:26:09.953Z,12.17
2018-09-05T12:28:38.456Z,12.33
2018-09-05T12:31:06.813Z,11.90
2018-09-05T12:33:35.118Z,12.57
2018-09-05T12:36:03.313Z,12.23
2018-09-05T12:38:31.531Z,11.90
2018-09-05T12:40:59.758Z,11.90
2018-09-05T12:43:28.023Z,12.77
2018-09-05T12:45:56.286Z,13.50
2018-09-05T12:48:24.865Z,12.60
2018-09-05T12:50:53.109Z,13.23
2018-09-05T12:53:21.373Z,12.33
2018-09-05T12:55:49.606Z,13.10
2018-09-05T12:58:17.888Z,13.23
2018-09-05T13:00:46.150Z,11.83
2018-09-05T13:03:14.381Z,11.83
2018-09-05T13:05:42.601Z,11.87
2018-09-05T13:08:10.859Z,11.57
2018-09-05T13:10:39.126Z,12.43
2018-09-05T13:13:07.454Z,11.20
2018-09-05T13:15:35.669Z,11.27
2018-09-05T13:18:03.887Z,12.70
2018-09-05T13:20:32.090Z,12.27
2018-09-05T13:23:00.317Z,13.10
2018-09-05T13:25:28.521Z,12.40
2018-09-05T13:27:56.745Z,12.10
2018-09-05T13:30:25.055Z,12.87
2018-09-05T13:32:53.278Z,12.83
2018-09-05T13:35:21.569Z,11.97
2018-09-05T13:37:49.774Z,12.60
2018-09-05T13:40:18.021Z,12.93
2018-09-05T13:42:46.229Z,11.63
2018-09-05T13:45:14.585Z,11.47
2018-09-05T13:47:42.746Z,12.00
2018-09-05T13:50:11.017Z,13.23
2018-09-05T13:52:39.353Z,12.10
2018-09-05T13:55:07.730Z,11.83
2018-09-05T13:57:36.002Z,11.30
2018-09-05T14:00:04.373Z,12.33
2018-09-05T14:02:32.713Z,12.17
2018-09-05T14:05:00.962Z,12.43
2018-09-05T14:07:29.251Z,11.67
2018-09-05T14:09:57.528Z,11.47
2018-09-05T14:12:25.717Z,11.50
2018-09-05T14:14:54.029Z,13.00
2018-09-05T14:17:22.297Z,12.37
2018-09-05T14:19:50.613Z,11.97
2018-09-05T14:22:18.829Z,12.30
2018-09-05T14:24:47.148Z,12.53
2018-09-05T14:27:15.410Z,11.97
2018-09-05T14:29:43.696Z,13.17
2018-09-05T14:32:12.055Z,14.17
2018-09-05T14:34:40.269Z,15.53
2018-09-05T14:37:08.578Z,16.90
2018-09-05T14:39:36.797Z,17.80
2018-09-05T14:42:05.345Z,15.37
2018-09-05T14:44:33.595Z,16.23
2018-09-05T14:47:01.874Z,15.80
2018-09-05T14:49:30.149Z,15.23
2018-09-05T14:51:58.455Z,15.30
2018-09-05T14:54:26.773Z,16.77
2018-09-05T14:56:55.054Z,16.90
2018-09-05T14:59:23.645Z,15.53
2018-09-05T15:01:51.952Z,15.07
2018-09-05T15:04:20.198Z,16.47
2018-09-05T15:06:48.537Z,16.93
2018-09-05T15:09:16.853Z,16.40
2018-09-05T15:11:45.062Z,17.97
2018-09-05T15:14:13.333Z,17.60
2018-09-05T15:16:41.579Z,17.87
2018-09-05T15:19:09.823Z,18.23
2018-09-05T15:21:38.078Z,18.90
2018-09-05T15:24:06.288Z,20.93
2018-09-05T15:26:34.574Z,20.90
2018-09-05T15:29:02.945Z,22.07
2018-09-05T15:31:31.190Z,22.33
2018-09-05T15:33:59.461Z,22.87
2018-09-05T15:36:27.786Z,24.30
2018-09-05T15:38:56.098Z,27.60
2018-09-05T15:41:24.375Z,25.03
2018-09-05T15:43:52.597Z,24.93
2018-09-05T15:46:20.985Z,29.53
2018-09-05T15:48:49.206Z,26.50
2018-09-05T15:51:17.586Z,26.07
2018-09-05T15:53:46.014Z,24.70
2018-09-05T15:56:14.206Z,24.00
2018-09-05T15:58:42.530Z,24.80
2018-09-05T16:01:10.797Z,22.13
2018-09-05T16:03:39.107Z,21.00
2018-09-05T16:06:07.262Z,20.90
2018-09-05T16:08:35.696Z,20.40
2018-09-05T16:11:03.922Z,19.07
2018-09-05T16:13:32.148Z,19.23
2018-09-05T16:16:00.409Z,21.40
2018-09-05T16:18:29.241Z,19.40
2018-09-05T16:20:57.517Z,19.37
2018-09-05T16:23:25.806Z,18.47
2018-09-05T16:25:54.089Z,17.80
2018-09-05T16:28:22.441Z,18.63
2018-09-05T16:30:50.773Z,19.47
2018-09-05T16:33:19.013Z,18.77
2018-09-05T16:35:47.336Z,16.73
2018-09-05T16:38:15.535Z,17.60
2018-09-05T16:40:43.802Z,17.47
2018-09-05T16:43:12.073Z,17.53
2018-09-05T16:45:40.331Z,18.80
2018-09-05T16:48:08.702Z,20.07
2018-09-05T16:50:36.936Z,19.10
2018-09-05T16:53:05.217Z,19.60
2018-09-05T16:55:33.485Z,18.10
2018-09-05T16:58:01.751Z,17.73
2018-09-05T17:00:30.093Z,16.27
2018-09-05T17:02:58.360Z,18.07
2018-09-05T17:05:26.719Z,17.20
2018-09-05T17:07:54.946Z,16.90
2018-09-05T17:10:23.171Z,16.57
2018-09-05T17:12:51.397Z,16.67
2018-09-05T17:15:19.751Z,17.13
2018-09-05T17:17:48.025Z,16.40
2018-09-05T17:20:19.268Z,18.57
2018-09-05T17:22:47.523Z,17.53
2018-09-05T17:25:15.746Z,18.90
2018-09-05T17:27:44.053Z,19.00
2018-09-05T17:30:12.367Z,17.33
2018-09-05T17:32:40.671Z,18.83
2018-09-05T17:35:08.941Z,19.57
2018-09-05T17:37:37.163Z,17.40
2018-09-05T17:40:05.553Z,18.50
2018-09-05T17:42:33.837Z,17.80
2018-09-05T17:45:02.128Z,17.40
2018-09-05T17:47:30.410Z,16.40
2018-09-05T17:49:58.673Z,18.90
2018-09-05T17:52:27.011Z,17.57
2018-09-05T17:54:55.226Z,21.30
2018-09-05T17:57:23.489Z,20.97
2018-09-05T17:59:51.795Z,19.87
2018-09-05T18:02:20.027Z,19.40
2018-09-05T18:04:48.326Z,20.67
2018-09-05T18:07:16.640Z,21.60
2018-09-05T18:09:45.029Z,23.13
2018-09-05T18:12:13.229Z,21.13
2018-09-05T18:14:41.590Z,21.67
2018-09-05T18:17:09.697Z,21.00
2018-09-05T18:19:38.021Z,23.10
2018-09-05T18:22:06.318Z,20.90
2018-09-05T18:24:34.560Z,23.10
2018-09-05T18:27:03.818Z,23.63
2018-09-05T18:29:32.065Z,22.60
2018-09-05T18:32:00.281Z,23.63
2018-09-05T18:34:28.566Z,23.10
2018-09-05T18:36:56.807Z,27.27
2018-09-05T18:39:25.054Z,26.17
2018-09-05T18:41:53.290Z,27.00
2018-09-05T18:44:21.686Z,25.40
2018-09-05T18:46:50.086Z,27.90
2018-09-05T18:49:18.449Z,32.10
2018-09-05T18:51:46.582Z,28.60
2018-09-05T18:54:14.909Z,29.80
2018-09-05T18:56:43.138Z,31.70
2018-09-05T18:59:11.389Z,31.57
2018-09-05T19:01:39.614Z,33.53
2018-09-05T19:04:07.890Z,30.10
2018-09-05T19:06:36.294Z,31.33
2018-09-05T19:09:07.640Z,30.33
2018-09-05T19:11:35.868Z,31.80
2018-09-05T19:14:04.131Z,33.83
2018-09-05T19:16:32.414Z,32.40
2018-09-05T19:19:00.679Z,34.03
2018-09-05T19:21:28.937Z,32.70
2018-09-05T19:23:57.224Z,40.93
2018-09-05T19:26:25.487Z,37.93
2018-09-05T19:28:53.779Z,40.27
2018-09-05T19:31:22.557Z,44.20
2018-09-05T19:33:50.765Z,40.00
2018-09-05T19:36:19.046Z,39.10
2018-09-05T19:38:47.364Z,39.47
2018-09-05T19:41:15.633Z,47.67
2018-09-05T19:43:43.841Z,43.07
2018-09-05T19:46:12.165Z,41.63
2018-09-05T19:48:40.417Z,45.10
2018-09-05T19:51:08.645Z,48.30
2018-09-05T19:53:37.146Z,44.30
2018-09-05T19:56:05.403Z,49.50
2018-09-05T19:58:33.643Z,42.20
2018-09-05T20:01:01.866Z,39.87
2018-09-05T20:03:30.144Z,43.70
2018-09-05T20:05:58.404Z,44.40
2018-09-05T20:08:26.669Z,43.87
2018-09-05T20:10:54.961Z,45.90
2018-09-05T20:13:23.213Z,42.70
2018-09-05T20:15:51.421Z,42.47
2018-09-05T20:18:19.638Z,44.07
2018-09-05T20:20:47.889Z,40.20
2018-09-05T20:23:16.156Z,40.57
2018-09-05T20:25:44.490Z,41.63
2018-09-05T20:28:12.746Z,45.20
2018-09-05T20:30:40.965Z,40.33
2018-09-05T20:33:09.291Z,44.37
2018-09-05T20:35:37.498Z,41.07
2018-09-05T20:38:05.818Z,38.70
2018-09-05T20:40:34.192Z,38.60
2018-09-05T20:43:02.416Z,38.60
2018-09-05T20:45:30.655Z,35.03
2018-09-05T20:47:58.958Z,40.13
2018-09-05T20:50:27.223Z,40.47
2018-09-05T20:52:55.479Z,43.03
2018-09-05T20:55:23.689Z,39.13
2018-09-05T20:57:51.941Z,40.47
2018-09-05T21:00:20.161Z,39.20
2018-09-05T21:02:48.409Z,38.67
2018-09-05T21:05:16.706Z,37.20
2018-09-05T21:07:44.914Z,41.17
2018-09-05T21:10:13.343Z,35.63
2018-09-05T21:12:41.590Z,37.77
2018-09-05T21:15:09.798Z,35.13
2018-09-05T21:17:38.026Z,34.30
2018-09-05T21:20:06.305Z,39.90
2018-09-05T21:22:34.594Z,35.03
2018-09-05T21:25:02.925Z,36.70
2018-09-05T21:27:31.187Z,39.93
2018-09-05T21:29:59.498Z,37.73
2018-09-05T21:32:27.722Z,44.57
2018-09-05T21:34:55.947Z,38.23
2018-09-05T21:37:24.213Z,41.77
2018-09-05T21:39:52.414Z,39.70
2018-09-05T21:42:20.687Z,44.90
2018-09-05T21:44:48.933Z,39.57
2018-09-05T21:47:17.153Z,38.80
2018-09-05T21:49:45.410Z,41.13
2018-09-05T21:52:13.657Z,41.47
2018-09-05T21:54:41.877Z,40.17
2018-09-05T21:57:10.813Z,41.50
2018-09-05T21:59:39.032Z,42.83
2018-09-05T22:02:07.277Z,41.63
2018-09-05T22:04:35.583Z,43.10
2018-09-05T22:07:03.805Z,43.27
2018-09-05T22:09:32.041Z,47.33
2018-09-05T22:12:00.334Z,41.83
2018-09-05T22:14:28.589Z,46.80
2018-09-05T22:16:56.891Z,48.73
2018-09-05T22:19:25.116Z,51.47
2018-09-05T22:21:53.429Z,51.97
2018-09-05T22:24:21.624Z,53.50
2018-09-05T22:26:49.833Z,52.20
2018-09-05T22:29:18.086Z,54.13
2018-09-05T22:31:46.347Z,53.60
2018-09-05T22:34:14.605Z,51.67
2018-09-05T22:36:42.854Z,49.30
2018-09-05T22:39:11.218Z,56.50
2018-09-05T22:41:39.445Z,57.63
2018-09-05T22:44:19.201Z,58.17
2018-09-05T22:46:58.829Z,54.67
2018-09-05T22:52:13.745Z,56.83
2018-09-05T22:57:14.637Z,61.57
2018-09-05T22:59:59.016Z,59.37
2018-09-05T23:02:41.860Z,66.73
2018-09-05T23:07:26.107Z,62.10
2018-09-05T23:10:05.762Z,61.67
2018-09-05T23:12:45.475Z,66.03
2018-09-05T23:15:25.132Z,70.47
2018-09-05T23:20:08.437Z,71.53
2018-09-05T23:23:52.133Z,71.97
2018-09-05T23:26:20.361Z,70.70
2018-09-05T23:28:48.605Z,74.70
2018-09-05T23:31:16.905Z,73.53
2018-09-05T23:33:51.762Z,81.73
2018-09-05T23:36:20.382Z,77.10
2018-09-05T23:38:48.746Z,75.17
2018-09-05T23:41:16.981Z,71.63
2018-09-05T23:43:45.249Z,68.90
2018-09-05T23:46:13.736Z,76.03
2018-09-05T23:48:41.992Z,66.77
2018-09-05T23:51:10.234Z,73.97
2018-09-05T23:53:38.537Z,79.67
2018-09-05T23:56:06.808Z,75.70
2018-09-05T23:58:35.033Z,80.57
